createdAt,value
2018-12-02T00:01:20.469Z,98837.00
2018-12-02T00:03:56.764Z,98838.00
2018-12-02T00:06:33.087Z,98834.00
2018-12-02T00:09:09.279Z,98833.00
2018-12-02T00:11:45.458Z,98831.00
2018-12-02T00:14:21.564Z,98826.00
2018-12-02T00:16:57.704Z,98819.00
2018-12-02T00:19:33.864Z,98813.00
2018-12-02T00:22:10.202Z,98808.00
2018-12-02T00:24:46.348Z,98806.00
2018-12-02T00:27:22.444Z,98808.00
2018-12-02T00:29:58.590Z,98801.00
2018-12-02T00:32:34.759Z,98802.00
2018-12-02T00:35:12.639Z,98802.00
2018-12-02T00:37:50.525Z,98791.00
2018-12-02T00:40:26.760Z,98788.00
2018-12-02T00:43:02.895Z,98782.00
2018-12-02T00:45:39.305Z,98777.00
2018-12-02T00:48:15.617Z,98767.00
2018-12-02T00:50:51.753Z,98767.00
2018-12-02T00:53:27.847Z,98760.00
2018-12-02T00:56:02.368Z,98761.00
2018-12-02T00:58:38.596Z,98755.00
2018-12-02T01:01:14.943Z,98752.00
2018-12-02T01:03:51.069Z,98752.00
2018-12-02T01:06:27.269Z,98741.00
2018-12-02T01:09:03.490Z,98741.00
2018-12-02T01:11:39.615Z,98740.00
2018-12-02T01:14:15.849Z,98732.00
2018-12-02T01:16:51.977Z,98727.00
2018-12-02T01:19:28.129Z,98724.00
2018-12-02T01:22:04.229Z,98719.00
2018-12-02T01:24:40.533Z,98716.00
2018-12-02T01:27:16.644Z,98709.00
2018-12-02T01:29:52.896Z,98712.00
2018-12-02T01:32:29.072Z,98702.00
2018-12-02T01:35:05.651Z,98708.00
2018-12-02T01:37:41.816Z,98712.00
2018-12-02T01:40:22.308Z,98714.00
2018-12-02T01:42:58.368Z,98710.00
2018-12-02T01:45:34.683Z,98705.00
2018-12-02T01:48:10.761Z,98704.00
2018-12-02T01:50:46.927Z,98700.00
2018-12-02T01:53:23.073Z,98686.00
2018-12-02T01:55:59.309Z,98695.00
2018-12-02T01:58:35.648Z,98697.00
2018-12-02T02:01:11.881Z,98692.00
2018-12-02T02:03:48.007Z,98683.00
2018-12-02T02:06:24.312Z,98680.00
2018-12-02T02:09:00.461Z,98680.00
2018-12-02T02:11:37.387Z,98675.00
2018-12-02T02:14:13.636Z,98679.00
2018-12-02T02:16:49.796Z,98674.00
2018-12-02T02:19:25.911Z,98665.00
2018-12-02T02:22:02.180Z,98653.00
2018-12-02T02:24:38.416Z,98648.00
2018-12-02T02:27:14.629Z,98646.00
2018-12-02T02:29:50.932Z,98638.00
2018-12-02T02:32:27.246Z,98636.00
2018-12-02T02:35:03.523Z,98631.00
2018-12-02T02:37:40.030Z,98632.00
2018-12-02T02:40:21.702Z,98633.00
2018-12-02T02:42:57.868Z,98623.00
2018-12-02T02:45:33.975Z,98615.00
2018-12-02T02:48:10.235Z,98613.00
2018-12-02T02:50:52.684Z,98618.00
2018-12-02T02:53:29.030Z,98606.00
2018-12-02T02:56:05.628Z,98602.00
2018-12-02T02:58:41.714Z,98598.00
2018-12-02T03:01:17.851Z,98598.00
2018-12-02T03:03:53.951Z,98597.00
2018-12-02T03:06:30.079Z,98587.00
2018-12-02T03:09:08.764Z,98584.00
2018-12-02T03:11:44.836Z,98583.00
2018-12-02T03:14:20.997Z,98579.00
2018-12-02T03:16:57.138Z,98573.00
2018-12-02T03:19:33.236Z,98562.00
2018-12-02T03:22:09.361Z,98557.00
2018-12-02T03:24:45.624Z,98552.00
2018-12-02T03:27:21.792Z,98541.00
2018-12-02T03:29:57.979Z,98539.00
2018-12-02T03:32:34.125Z,98523.00
2018-12-02T03:35:14.984Z,98524.00
2018-12-02T03:37:51.351Z,98515.00
2018-12-02T03:40:28.677Z,98511.00
2018-12-02T03:43:04.760Z,98506.00
2018-12-02T03:45:40.897Z,98498.00
2018-12-02T03:48:17.152Z,98495.00
2018-12-02T03:50:53.244Z,98493.00
2018-12-02T03:53:29.518Z,98491.00
2018-12-02T03:56:05.677Z,98487.00
2018-12-02T03:58:41.828Z,98486.00
2018-12-02T04:01:18.124Z,98493.00
2018-12-02T04:03:54.306Z,98497.00
2018-12-02T04:06:30.400Z,98489.00
2018-12-02T04:09:09.547Z,98486.00
2018-12-02T04:11:45.730Z,98480.00
2018-12-02T04:14:22.025Z,98490.00
2018-12-02T04:16:58.149Z,98482.00
2018-12-02T04:19:34.333Z,98488.00
2018-12-02T04:22:10.552Z,98486.00
2018-12-02T04:24:46.804Z,98479.00
2018-12-02T04:27:22.932Z,98488.00
2018-12-02T04:29:59.083Z,98485.00
2018-12-02T04:32:35.300Z,98492.00
2018-12-02T04:35:15.912Z,98491.00
2018-12-02T04:37:52.315Z,98489.00
2018-12-02T04:40:28.694Z,98491.00
2018-12-02T04:43:04.829Z,98489.00
2018-12-02T04:45:41.187Z,98491.00
2018-12-02T04:48:17.263Z,98482.00
2018-12-02T04:50:53.418Z,98488.00
2018-12-02T04:53:29.597Z,98479.00
2018-12-02T04:56:06.063Z,98471.00
2018-12-02T04:58:42.186Z,98471.00
2018-12-02T05:01:18.461Z,98465.00
2018-12-02T05:03:54.653Z,98464.00
2018-12-02T05:06:31.654Z,98456.00
2018-12-02T05:09:08.499Z,98454.00
2018-12-02T05:11:44.730Z,98450.00
2018-12-02T05:14:20.947Z,98446.00
2018-12-02T05:16:57.176Z,98443.00
2018-12-02T05:19:33.448Z,98446.00
2018-12-02T05:22:09.765Z,98434.00
2018-12-02T05:24:46.057Z,98431.00
2018-12-02T05:27:22.272Z,98427.00
2018-12-02T05:29:58.591Z,98427.00
2018-12-02T05:32:34.807Z,98425.00
2018-12-02T05:35:12.509Z,98422.00
2018-12-02T05:37:48.637Z,98412.00
2018-12-02T05:40:25.213Z,98413.00
2018-12-02T05:43:01.586Z,98418.00
2018-12-02T05:45:37.945Z,98404.00
2018-12-02T05:48:14.208Z,98405.00
2018-12-02T05:50:50.548Z,98410.00
2018-12-02T05:53:26.821Z,98405.00
2018-12-02T05:56:03.095Z,98401.00
2018-12-02T05:58:39.322Z,98400.00
2018-12-02T06:01:15.524Z,98397.00
2018-12-02T06:03:51.688Z,98400.00
2018-12-02T06:06:27.885Z,98387.00
2018-12-02T06:09:04.980Z,98388.00
2018-12-02T06:11:43.793Z,98391.00
2018-12-02T06:14:17.457Z,98388.00
2018-12-02T06:16:54.101Z,98384.00
2018-12-02T06:19:30.369Z,98381.00
2018-12-02T06:22:06.904Z,98377.00
2018-12-02T06:24:43.045Z,98376.00
2018-12-02T06:27:19.228Z,98378.00
2018-12-02T06:29:55.543Z,98375.00
2018-12-02T06:32:31.724Z,98373.00
2018-12-02T06:35:10.367Z,98368.00
2018-12-02T06:37:46.593Z,98369.00
2018-12-02T06:40:24.335Z,98366.00
2018-12-02T06:43:00.568Z,98364.00
2018-12-02T06:45:36.936Z,98361.00
2018-12-02T06:48:13.250Z,98362.00
2018-12-02T06:50:49.410Z,98364.00
2018-12-02T06:53:25.596Z,98369.00
2018-12-02T06:56:09.709Z,98376.00
2018-12-02T06:59:57.056Z,98369.00
2018-12-02T07:04:47.200Z,98369.00
2018-12-02T07:07:23.483Z,98354.00
2018-12-02T07:09:59.732Z,98356.00
2018-12-02T07:12:35.924Z,98359.00
2018-12-02T07:15:12.140Z,98348.00
2018-12-02T07:17:48.301Z,98349.00
2018-12-02T07:20:24.543Z,98349.00
2018-12-02T07:23:00.720Z,98349.00
2018-12-02T07:25:37.187Z,98348.00
2018-12-02T07:28:13.417Z,98348.00
2018-12-02T07:30:49.700Z,98343.00
2018-12-02T07:33:25.903Z,98348.00
2018-12-02T07:36:09.153Z,98341.00
2018-12-02T07:39:16.169Z,98340.00
2018-12-02T07:41:52.460Z,98336.00
2018-12-02T07:44:28.593Z,98335.00
2018-12-02T07:47:04.772Z,98337.00
2018-12-02T07:49:41.076Z,98329.00
2018-12-02T07:52:17.320Z,98326.00
2018-12-02T07:54:53.600Z,98316.00
2018-12-02T07:57:29.693Z,98314.00
2018-12-02T08:00:13.563Z,98319.00
2018-12-02T08:02:49.755Z,98315.00
2018-12-02T08:05:25.905Z,98315.00
2018-12-02T08:08:02.205Z,98311.00
2018-12-02T08:10:38.436Z,98310.00
2018-12-02T08:13:14.632Z,98316.00
2018-12-02T08:15:50.760Z,98318.00
2018-12-02T08:18:26.917Z,98307.00
2018-12-02T08:21:03.221Z,98307.00
2018-12-02T08:23:39.324Z,98306.00
2018-12-02T08:26:15.521Z,98309.00
2018-12-02T08:28:51.635Z,98295.00
2018-12-02T08:31:27.877Z,98297.00
2018-12-02T08:34:04.447Z,98298.00
2018-12-02T08:36:40.589Z,98298.00
2018-12-02T08:39:16.683Z,98293.00
2018-12-02T08:41:52.908Z,98293.00
2018-12-02T08:44:29.045Z,98295.00
2018-12-02T08:47:06.001Z,98287.00
2018-12-02T08:49:42.171Z,98291.00
2018-12-02T08:52:18.325Z,98295.00
2018-12-02T08:54:54.476Z,98288.00
2018-12-02T08:57:30.596Z,98283.00
2018-12-02T09:00:11.008Z,98285.00
2018-12-02T09:02:52.620Z,98281.00
2018-12-02T09:05:28.867Z,98272.00
2018-12-02T09:08:05.640Z,98273.00
2018-12-02T09:10:42.736Z,98262.00
2018-12-02T09:13:19.180Z,98265.00
2018-12-02T09:15:55.429Z,98260.00
2018-12-02T09:18:38.383Z,98258.00
2018-12-02T09:21:14.768Z,98253.00
2018-12-02T09:23:50.892Z,98251.00
2018-12-02T09:26:27.193Z,98255.00
2018-12-02T09:29:03.543Z,98254.00
2018-12-02T09:31:39.927Z,98262.00
2018-12-02T09:34:16.073Z,98256.00
2018-12-02T09:36:57.852Z,98258.00
2018-12-02T09:39:28.502Z,98257.00
2018-12-02T09:42:04.730Z,98262.00
2018-12-02T09:44:40.905Z,98262.00
2018-12-02T09:47:17.076Z,98263.00
2018-12-02T09:49:53.308Z,98269.00
2018-12-02T09:52:29.420Z,98276.00
2018-12-02T09:55:13.339Z,98278.00
2018-12-02T09:57:49.575Z,98265.00
2018-12-02T10:00:25.758Z,98271.00
2018-12-02T10:03:02.072Z,98278.00
2018-12-02T10:05:38.261Z,98280.00
2018-12-02T10:08:14.445Z,98278.00
2018-12-02T10:10:50.569Z,98285.00
2018-12-02T10:13:26.723Z,98279.00
2018-12-02T10:16:02.905Z,98272.00
2018-12-02T10:18:39.100Z,98272.00
2018-12-02T10:21:15.301Z,98275.00
2018-12-02T10:23:51.440Z,98267.00
2018-12-02T10:26:27.778Z,98262.00
2018-12-02T10:29:04.079Z,98268.00
2018-12-02T10:31:40.224Z,98264.00
2018-12-02T10:34:16.568Z,98263.00
2018-12-02T10:36:52.710Z,98260.00
2018-12-02T10:39:28.860Z,98264.00
2018-12-02T10:42:05.065Z,98264.00
2018-12-02T10:44:41.234Z,98265.00
2018-12-02T10:47:17.484Z,98266.00
2018-12-02T10:49:53.657Z,98255.00
2018-12-02T10:52:30.111Z,98257.00
2018-12-02T10:55:12.104Z,98262.00
2018-12-02T10:57:48.373Z,98256.00
2018-12-02T11:00:29.866Z,98261.00
2018-12-02T11:03:06.154Z,98267.00
2018-12-02T11:05:42.368Z,98269.00
2018-12-02T11:08:18.626Z,98256.00
2018-12-02T11:10:54.967Z,98254.00
2018-12-02T11:13:31.096Z,98254.00
2018-12-02T11:16:08.019Z,98246.00
2018-12-02T11:18:44.107Z,98247.00
2018-12-02T11:21:20.216Z,98244.00
2018-12-02T11:23:56.488Z,98251.00
2018-12-02T11:26:32.672Z,98244.00
2018-12-02T11:29:09.044Z,98248.00
2018-12-02T11:31:45.288Z,98251.00
2018-12-02T11:34:21.443Z,98248.00
2018-12-02T11:36:57.547Z,98253.00
2018-12-02T11:39:33.688Z,98253.00
2018-12-02T11:42:09.912Z,98253.00
2018-12-02T11:44:46.000Z,98249.00
2018-12-02T11:47:22.264Z,98244.00
2018-12-02T11:49:58.445Z,98244.00
2018-12-02T11:52:34.604Z,98246.00
2018-12-02T11:55:12.134Z,98246.00
2018-12-02T11:57:48.259Z,98245.00
2018-12-02T12:00:25.992Z,98244.00
2018-12-02T12:03:02.056Z,98248.00
2018-12-02T12:05:39.108Z,98240.00
2018-12-02T12:08:15.260Z,98239.00
2018-12-02T12:10:51.483Z,98241.00
2018-12-02T12:13:27.608Z,98245.00
2018-12-02T12:16:03.731Z,98244.00
2018-12-02T12:18:39.816Z,98244.00
2018-12-02T12:21:15.905Z,98247.00
2018-12-02T12:23:52.064Z,98246.00
2018-12-02T12:26:28.298Z,98248.00
2018-12-02T12:29:04.360Z,98250.00
2018-12-02T12:31:40.632Z,98259.00
2018-12-02T12:34:16.913Z,98254.00
2018-12-02T12:36:53.109Z,98249.00
2018-12-02T12:39:29.163Z,98260.00
2018-12-02T12:42:06.164Z,98255.00
2018-12-02T12:44:42.200Z,98253.00
2018-12-02T12:47:18.392Z,98252.00
2018-12-02T12:49:54.685Z,98256.00
2018-12-02T12:52:30.855Z,98252.00
2018-12-02T12:55:12.052Z,98252.00
2018-12-02T12:57:48.241Z,98259.00
2018-12-02T13:00:24.921Z,98261.00
2018-12-02T13:03:00.992Z,98258.00
2018-12-02T13:05:37.224Z,98257.00
2018-12-02T13:08:15.101Z,98257.00
2018-12-02T13:10:51.232Z,98262.00
2018-12-02T13:13:27.360Z,98257.00
2018-12-02T13:16:04.437Z,98256.00
2018-12-02T13:18:40.817Z,98255.00
2018-12-02T13:21:16.970Z,98259.00
2018-12-02T13:23:53.846Z,98265.00
2018-12-02T13:26:31.107Z,98264.00
2018-12-02T13:29:07.494Z,98259.00
2018-12-02T13:31:43.959Z,98263.00
2018-12-02T13:34:20.307Z,98263.00
2018-12-02T13:36:56.495Z,98260.00
2018-12-02T13:39:32.850Z,98264.00
2018-12-02T13:42:09.200Z,98265.00
2018-12-02T13:44:45.319Z,98271.00
2018-12-02T13:47:21.522Z,98276.00
2018-12-02T13:49:57.823Z,98290.00
2018-12-02T13:52:33.979Z,98287.00
2018-12-02T13:55:12.223Z,98287.00
2018-12-02T13:57:48.758Z,98283.00
2018-12-02T14:00:27.244Z,98286.00
2018-12-02T14:03:08.553Z,98277.00
2018-12-02T14:05:49.379Z,98274.00
2018-12-02T14:08:25.456Z,98276.00
2018-12-02T14:11:01.679Z,98283.00
2018-12-02T14:13:38.045Z,98278.00
2018-12-02T14:16:43.939Z,98277.00
2018-12-02T14:19:20.277Z,98278.00
2018-12-02T14:21:56.413Z,98279.00
2018-12-02T14:24:32.551Z,98280.00
2018-12-02T14:27:10.356Z,98281.00
2018-12-02T14:29:54.072Z,98279.00
2018-12-02T14:32:30.209Z,98286.00
2018-12-02T14:35:07.932Z,98288.00
2018-12-02T14:37:44.417Z,98288.00
2018-12-02T14:40:20.610Z,98292.00
2018-12-02T14:42:56.985Z,98291.00
2018-12-02T14:45:33.256Z,98300.00
2018-12-02T14:48:09.592Z,98302.00
2018-12-02T14:50:45.928Z,98301.00
2018-12-02T14:53:22.018Z,98306.00
2018-12-02T14:55:58.145Z,98305.00
2018-12-02T14:58:34.497Z,98314.00
2018-12-02T15:01:10.833Z,98316.00
2018-12-02T15:03:46.990Z,98317.00
2018-12-02T15:06:23.494Z,98318.00
2018-12-02T15:08:59.649Z,98319.00
2018-12-02T15:11:35.800Z,98319.00
2018-12-02T15:14:12.762Z,98318.00
2018-12-02T15:16:49.093Z,98326.00
2018-12-02T15:19:25.760Z,98327.00
2018-12-02T15:22:01.925Z,98322.00
2018-12-02T15:24:38.153Z,98321.00
2018-12-02T15:27:14.357Z,98331.00
2018-12-02T15:29:50.552Z,98330.00
2018-12-02T15:32:26.648Z,98328.00
2018-12-02T15:35:02.845Z,98330.00
2018-12-02T15:37:38.987Z,98336.00
2018-12-02T15:40:17.628Z,98339.00
2018-12-02T15:42:54.624Z,98349.00
2018-12-02T15:45:30.717Z,98341.00
2018-12-02T15:48:06.961Z,98348.00
2018-12-02T15:50:43.281Z,98352.00
2018-12-02T15:53:19.394Z,98346.00
2018-12-02T15:55:58.436Z,98352.00
2018-12-02T15:58:34.548Z,98348.00
2018-12-02T16:01:10.663Z,98351.00
2018-12-02T16:03:46.982Z,98345.00
2018-12-02T16:06:23.104Z,98347.00
2018-12-02T16:08:59.278Z,98351.00
2018-12-02T16:11:35.445Z,98349.00
2018-12-02T16:14:11.549Z,98353.00
2018-12-02T16:16:47.712Z,98360.00
2018-12-02T16:19:23.964Z,98364.00
2018-12-02T16:22:00.157Z,98364.00
2018-12-02T16:24:36.513Z,98368.00
2018-12-02T16:27:12.768Z,98361.00
2018-12-02T16:29:48.948Z,98363.00
2018-12-02T16:32:25.226Z,98364.00
2018-12-02T16:35:01.419Z,98368.00
2018-12-02T16:37:37.750Z,98373.00
2018-12-02T16:40:25.445Z,98374.00
2018-12-02T16:43:01.641Z,98376.00
2018-12-02T16:45:37.820Z,98374.00
2018-12-02T16:48:13.924Z,98376.00
2018-12-02T16:50:50.208Z,98373.00
2018-12-02T16:53:28.988Z,98377.00
2018-12-02T16:56:09.369Z,98374.00
2018-12-02T16:59:02.116Z,98372.00
2018-12-02T17:01:38.428Z,98377.00
2018-12-02T17:04:15.155Z,98384.00
2018-12-02T17:06:51.480Z,98377.00
2018-12-02T17:09:27.636Z,98372.00
2018-12-02T17:12:03.939Z,98377.00
2018-12-02T17:14:40.031Z,98375.00
2018-12-02T17:17:16.336Z,98379.00
2018-12-02T17:19:52.627Z,98371.00
2018-12-02T17:22:28.764Z,98378.00
2018-12-02T17:25:06.164Z,98380.00
2018-12-02T17:27:44.419Z,98382.00
2018-12-02T17:30:49.248Z,98381.00
2018-12-02T17:33:25.513Z,98374.00
2018-12-02T17:36:01.819Z,98372.00
2018-12-02T17:38:37.978Z,98373.00
2018-12-02T17:41:15.742Z,98370.00
2018-12-02T17:43:51.959Z,98371.00
2018-12-02T17:46:28.322Z,98369.00
2018-12-02T17:49:04.429Z,98378.00
2018-12-02T17:51:40.541Z,98369.00
2018-12-02T17:54:16.851Z,98362.00
2018-12-02T17:56:53.151Z,98375.00
2018-12-02T17:59:29.473Z,98381.00
2018-12-02T18:02:06.473Z,98371.00
2018-12-02T18:04:42.680Z,98370.00
2018-12-02T18:07:18.849Z,98363.00
2018-12-02T18:09:55.136Z,98362.00
2018-12-02T18:12:31.449Z,98363.00
2018-12-02T18:15:12.266Z,98362.00
2018-12-02T18:17:48.505Z,98363.00
2018-12-02T18:20:24.829Z,98378.00
2018-12-02T18:23:01.207Z,98380.00
2018-12-02T18:25:37.374Z,98387.00
2018-12-02T18:28:13.535Z,98382.00
2018-12-02T18:30:49.736Z,98382.00
2018-12-02T18:33:26.454Z,98385.00
2018-12-02T18:36:14.188Z,98392.00
2018-12-02T18:38:50.929Z,98394.00
2018-12-02T18:41:38.228Z,98389.00
2018-12-02T18:44:16.579Z,98382.00
2018-12-02T18:46:53.233Z,98387.00
2018-12-02T18:49:29.821Z,98378.00
2018-12-02T18:52:06.461Z,98376.00
2018-12-02T18:54:42.897Z,98378.00
2018-12-02T18:57:19.252Z,98380.00
2018-12-02T18:59:55.437Z,98392.00
2018-12-02T19:02:31.651Z,98393.00
2018-12-02T19:05:07.873Z,98403.00
2018-12-02T19:07:44.288Z,98409.00
2018-12-02T19:10:22.895Z,98402.00
2018-12-02T19:12:59.077Z,98400.00
2018-12-02T19:15:35.641Z,98393.00
2018-12-02T19:18:11.730Z,98395.00
2018-12-02T19:20:49.508Z,98385.00
2018-12-02T19:23:30.144Z,98397.00
2018-12-02T19:26:06.488Z,98392.00
2018-12-02T19:28:42.780Z,98392.00
2018-12-02T19:31:19.001Z,98393.00
2018-12-02T19:33:57.253Z,98382.00
2018-12-02T19:36:42.007Z,98382.00
2018-12-02T19:39:18.152Z,98380.00
2018-12-02T19:41:54.302Z,98378.00
2018-12-02T19:44:30.476Z,98373.00
2018-12-02T19:47:06.948Z,98375.00
2018-12-02T19:49:43.239Z,98382.00
2018-12-02T19:52:19.560Z,98385.00
2018-12-02T19:54:55.723Z,98386.00
2018-12-02T19:57:31.971Z,98377.00
2018-12-02T20:00:48.415Z,98383.00
2018-12-02T20:03:24.582Z,98383.00
2018-12-02T20:06:00.768Z,98381.00
2018-12-02T20:08:37.112Z,98382.00
2018-12-02T20:11:13.240Z,98386.00
2018-12-02T20:13:49.494Z,98381.00
2018-12-02T20:16:25.796Z,98381.00
2018-12-02T20:19:06.060Z,98382.00
2018-12-02T20:21:42.288Z,98379.00
2018-12-02T20:24:23.759Z,98382.00
2018-12-02T20:26:59.857Z,98395.00
2018-12-02T20:29:36.157Z,98392.00
2018-12-02T20:32:13.593Z,98389.00
2018-12-02T20:34:49.748Z,98391.00
2018-12-02T20:37:26.126Z,98396.00
2018-12-02T20:40:02.336Z,98399.00
2018-12-02T20:42:38.642Z,98391.00
2018-12-02T20:45:16.147Z,98389.00
2018-12-02T20:47:52.221Z,98393.00
2018-12-02T20:50:28.405Z,98383.00
2018-12-02T20:53:05.004Z,98388.00
2018-12-02T20:55:41.144Z,98386.00
2018-12-02T20:58:17.457Z,98388.00
2018-12-02T21:00:53.668Z,98383.00
2018-12-02T21:03:34.028Z,98386.00
2018-12-02T21:06:15.780Z,98384.00
2018-12-02T21:08:51.854Z,98372.00
2018-12-02T21:11:28.029Z,98377.00
2018-12-02T21:14:04.178Z,98373.00
2018-12-02T21:16:40.390Z,98379.00
2018-12-02T21:19:16.711Z,98372.00
2018-12-02T21:21:52.948Z,98371.00
2018-12-02T21:24:29.168Z,98368.00
2018-12-02T21:27:05.671Z,98373.00
2018-12-02T21:29:41.721Z,98366.00
2018-12-02T21:32:22.496Z,98367.00
2018-12-02T21:34:54.044Z,98358.00
2018-12-02T21:37:30.297Z,98357.00
2018-12-02T21:40:10.755Z,98358.00
2018-12-02T21:42:46.905Z,98352.00
2018-12-02T21:45:23.230Z,98353.00
2018-12-02T21:47:59.450Z,98350.00
2018-12-02T21:50:35.669Z,98342.00
2018-12-02T21:53:11.865Z,98351.00
2018-12-02T21:55:48.220Z,98345.00
2018-12-02T21:58:24.411Z,98345.00
2018-12-02T22:01:05.929Z,98349.00
2018-12-02T22:03:42.355Z,98346.00
2018-12-02T22:06:18.618Z,98341.00
2018-12-02T22:08:54.849Z,98343.00
2018-12-02T22:11:31.127Z,98343.00
2018-12-02T22:14:07.393Z,98339.00
2018-12-02T22:16:43.609Z,98341.00
2018-12-02T22:19:19.834Z,98338.00
2018-12-02T22:21:55.911Z,98336.00
2018-12-02T22:24:32.060Z,98333.00
2018-12-02T22:27:08.352Z,98331.00
2018-12-02T22:29:44.536Z,98335.00
2018-12-02T22:32:20.684Z,98337.00
2018-12-02T22:34:56.812Z,98339.00
2018-12-02T22:37:32.948Z,98338.00
2018-12-02T22:40:26.115Z,98337.00
2018-12-02T22:43:02.406Z,98341.00
2018-12-02T22:45:38.523Z,98337.00
2018-12-02T22:48:14.729Z,98337.00
2018-12-02T22:50:50.990Z,98334.00
2018-12-02T22:53:27.188Z,98332.00
2018-12-02T22:56:03.403Z,98333.00
2018-12-02T22:58:39.541Z,98325.00
2018-12-02T23:01:21.711Z,98320.00
2018-12-02T23:03:57.025Z,98323.00
2018-12-02T23:06:33.097Z,98325.00
2018-12-02T23:09:09.643Z,98323.00
2018-12-02T23:11:45.802Z,98321.00
2018-12-02T23:14:22.007Z,98318.00
2018-12-02T23:17:25.597Z,98318.00
2018-12-02T23:20:01.971Z,98309.00
2018-12-02T23:22:38.191Z,98316.00
2018-12-02T23:25:15.628Z,98304.00
2018-12-02T23:27:51.870Z,98297.00
2018-12-02T23:30:28.108Z,98300.00
2018-12-02T23:33:04.452Z,98304.00
2018-12-02T23:35:40.592Z,98297.00
2018-12-02T23:38:16.928Z,98291.00
2018-12-02T23:40:53.277Z,98290.00
2018-12-02T23:43:29.434Z,98292.00
2018-12-02T23:46:05.751Z,98289.00
2018-12-02T23:48:42.056Z,98269.00
2018-12-02T23:51:18.319Z,98272.00
2018-12-02T23:53:54.842Z,98279.00
2018-12-02T23:56:31.109Z,98286.00
2018-12-02T23:59:07.236Z,98283.00
